Terminal Aerodrome Forecast
Issued by NWS

Home | Current Version | Previous Version | Text Only | Print | Product List | Glossary On
Versions: 1 2 3 4 5 6 7 8 9 10 11 12 13 14 15 16 17
000
FTUS44 KJAN 291731
TAFGTR
TAF
KGTR 291731Z 2918/3018 14008KT P6SM BKN021 BKN028
     FM292000 17007KT P6SM BKN040
     FM300000 VRB03KT P6SM OVC100
     FM300900 16004KT P6SM OVC003
     FM301400 17008KT P6SM BKN025
     FM301600 18010KT P6SM BKN050=

USA.gov is the U.S. government's official web portal to all federal, state and local government web resources and services.